createdAt,value
2022-12-07T00:01:29.102Z,5.28
2022-12-07T00:04:14.257Z,5.24
2022-12-07T00:06:57.245Z,5.33
2022-12-07T00:09:42.731Z,5.21
2022-12-07T00:12:25.775Z,5.34
2022-12-07T00:15:09.806Z,5.12
2022-12-07T00:17:52.907Z,5.09
2022-12-07T00:20:35.951Z,5.04
2022-12-07T00:23:19.005Z,5.02
2022-12-07T00:26:08.005Z,5.02
2022-12-07T00:28:52.296Z,5.03
2022-12-07T00:31:39.979Z,4.78
2022-12-07T00:34:23.839Z,4.97
2022-12-07T00:37:06.897Z,5.03
2022-12-07T00:39:50.019Z,5.15
2022-12-07T00:42:34.542Z,5.08
2022-12-07T00:45:17.799Z,5.10
2022-12-07T00:48:00.799Z,5.18
2022-12-07T00:50:43.859Z,5.12
2022-12-07T00:53:28.423Z,5.24
2022-12-07T00:56:14.588Z,5.34
2022-12-07T00:59:00.537Z,5.47
2022-12-07T01:01:43.802Z,5.58
2022-12-07T01:04:26.914Z,5.58
2022-12-07T01:07:09.980Z,5.58
2022-12-07T01:09:52.968Z,5.37
2022-12-07T01:12:35.986Z,5.44
2022-12-07T01:15:20.628Z,5.37
2022-12-07T01:18:03.673Z,5.57
2022-12-07T01:20:46.740Z,5.68
2022-12-07T01:23:30.565Z,5.64
2022-12-07T01:26:15.466Z,5.61
2022-12-07T01:29:00.189Z,5.58
2022-12-07T01:31:44.742Z,5.48
2022-12-07T01:34:27.818Z,5.37
2022-12-07T01:37:10.811Z,5.55
2022-12-07T01:39:54.437Z,5.64
2022-12-07T01:42:37.506Z,5.65
2022-12-07T01:45:41.158Z,5.69
2022-12-07T01:48:29.888Z,5.63
2022-12-07T01:51:15.890Z,5.45
2022-12-07T01:53:59.008Z,5.55
2022-12-07T01:56:45.237Z,5.55
2022-12-07T01:59:28.705Z,5.38
2022-12-07T02:02:21.022Z,5.51
2022-12-07T02:05:07.836Z,5.53
2022-12-07T02:07:53.208Z,5.52
2022-12-07T02:10:36.362Z,5.54
2022-12-07T02:13:22.228Z,5.46
2022-12-07T02:16:15.699Z,5.55
2022-12-07T02:19:14.397Z,5.32
2022-12-07T02:22:08.432Z,5.41
2022-12-07T02:24:57.684Z,5.52
2022-12-07T02:27:48.225Z,5.41
2022-12-07T02:30:36.383Z,5.45
2022-12-07T02:33:26.838Z,5.52
2022-12-07T02:36:15.520Z,5.53
2022-12-07T02:39:03.308Z,5.56
2022-12-07T02:41:50.710Z,5.51
2022-12-07T02:44:35.196Z,5.34
2022-12-07T02:47:22.357Z,5.38
2022-12-07T02:50:07.118Z,5.17
2022-12-07T02:52:50.406Z,5.33
2022-12-07T02:55:40.852Z,5.40
2022-12-07T02:58:35.019Z,5.50
2022-12-07T03:01:29.629Z,5.37
2022-12-07T03:04:28.584Z,5.28
2022-12-07T03:07:20.809Z,5.14
2022-12-07T03:10:11.237Z,5.04
2022-12-07T03:13:04.450Z,5.00
2022-12-07T03:15:56.999Z,5.04
2022-12-07T03:18:44.058Z,4.80
2022-12-07T03:21:33.621Z,4.87
2022-12-07T03:24:19.726Z,4.88
2022-12-07T03:27:09.079Z,4.86
2022-12-07T03:29:57.104Z,4.91
2022-12-07T03:32:43.776Z,4.75
2022-12-07T03:35:31.053Z,4.77
2022-12-07T03:38:19.625Z,4.69
2022-12-07T03:41:08.753Z,4.72
2022-12-07T03:43:52.140Z,4.79
2022-12-07T03:46:45.232Z,4.89
2022-12-07T03:49:33.442Z,4.94
2022-12-07T03:52:25.037Z,4.98
2022-12-07T03:55:13.515Z,5.02
2022-12-07T03:58:01.414Z,5.01
2022-12-07T04:00:45.480Z,5.02
2022-12-07T04:03:28.495Z,4.99
2022-12-07T04:06:11.607Z,4.93
2022-12-07T04:08:54.701Z,4.90
2022-12-07T04:11:39.125Z,4.61
2022-12-07T04:14:22.164Z,4.73
2022-12-07T04:17:05.351Z,4.63
2022-12-07T04:19:48.370Z,4.72
2022-12-07T04:22:31.481Z,4.83
2022-12-07T04:25:14.699Z,4.68
2022-12-07T04:27:59.090Z,4.81
2022-12-07T04:30:42.142Z,4.91
2022-12-07T04:33:25.202Z,4.76
2022-12-07T04:36:08.837Z,4.93
2022-12-07T04:38:52.062Z,4.94
2022-12-07T04:41:35.524Z,4.88
2022-12-07T04:44:20.868Z,4.99
2022-12-07T04:47:04.216Z,5.05
2022-12-07T04:49:47.443Z,5.00
2022-12-07T04:52:30.659Z,5.06
2022-12-07T04:55:13.889Z,5.10
2022-12-07T04:57:57.009Z,5.09
2022-12-07T05:00:42.106Z,5.01
2022-12-07T05:03:25.158Z,5.09
2022-12-07T05:06:13.211Z,4.97
2022-12-07T05:08:56.982Z,4.83
2022-12-07T05:11:40.090Z,4.70
2022-12-07T05:14:23.545Z,4.75
2022-12-07T05:17:08.042Z,4.73
2022-12-07T05:19:51.114Z,4.57
2022-12-07T05:22:34.230Z,4.45
2022-12-07T05:25:17.455Z,4.47
2022-12-07T05:28:00.732Z,4.54
2022-12-07T05:30:43.804Z,4.60
2022-12-07T05:33:28.327Z,4.53
2022-12-07T05:36:11.453Z,4.64
2022-12-07T05:38:54.678Z,4.50
2022-12-07T05:41:54.914Z,4.63
2022-12-07T05:44:37.972Z,4.71
2022-12-07T05:47:21.026Z,4.78
2022-12-07T05:50:07.326Z,4.77
2022-12-07T05:52:50.374Z,4.88
2022-12-07T05:55:33.475Z,4.82
2022-12-07T05:58:34.048Z,4.79
2022-12-07T06:01:17.131Z,4.76
2022-12-07T06:04:00.205Z,4.86
2022-12-07T06:06:44.764Z,4.88
2022-12-07T06:09:29.643Z,4.93
2022-12-07T06:12:30.977Z,4.99
2022-12-07T06:15:14.556Z,5.01
2022-12-07T06:17:57.596Z,5.07
2022-12-07T06:20:40.717Z,5.19
2022-12-07T06:23:25.181Z,5.37
2022-12-07T06:26:08.286Z,5.31
2022-12-07T06:28:51.410Z,5.57
2022-12-07T06:31:34.828Z,5.79
2022-12-07T06:34:19.595Z,5.85
2022-12-07T06:37:02.676Z,6.00
2022-12-07T06:39:47.300Z,6.07
2022-12-07T06:42:30.306Z,6.39
2022-12-07T06:45:13.400Z,6.64
2022-12-07T06:47:56.505Z,6.80
2022-12-07T06:50:39.680Z,6.77
2022-12-07T06:53:22.722Z,6.92
2022-12-07T06:56:07.964Z,6.99
2022-12-07T06:58:51.547Z,6.87
2022-12-07T07:01:35.999Z,6.88
2022-12-07T07:04:19.131Z,6.89
2022-12-07T07:07:02.233Z,7.28
2022-12-07T07:09:45.299Z,7.18
2022-12-07T07:12:29.781Z,7.48
2022-12-07T07:15:13.280Z,7.77
2022-12-07T07:17:56.340Z,8.16
2022-12-07T07:20:39.979Z,8.83
2022-12-07T07:23:23.667Z,9.07
2022-12-07T07:26:06.813Z,9.19
2022-12-07T07:28:51.255Z,8.82
2022-12-07T07:31:36.477Z,8.91
2022-12-07T07:34:19.737Z,8.10
2022-12-07T07:37:02.915Z,8.61
2022-12-07T07:39:45.928Z,8.47
2022-12-07T07:42:28.993Z,7.89
2022-12-07T07:45:14.079Z,8.55
2022-12-07T07:47:57.156Z,8.79
2022-12-07T07:50:40.133Z,9.13
2022-12-07T07:53:23.239Z,9.49
2022-12-07T07:56:06.600Z,10.03
2022-12-07T07:58:53.557Z,10.34
2022-12-07T08:01:38.084Z,9.47
2022-12-07T08:04:21.205Z,9.34
2022-12-07T08:07:04.301Z,10.31
2022-12-07T08:09:47.305Z,10.90
2022-12-07T08:12:30.329Z,10.91
2022-12-07T08:15:13.352Z,11.02
2022-12-07T08:17:57.857Z,11.27
2022-12-07T08:20:42.506Z,11.44
2022-12-07T08:23:32.450Z,11.63
2022-12-07T08:26:20.523Z,11.29
2022-12-07T08:29:03.628Z,10.88
2022-12-07T08:31:46.665Z,11.14
2022-12-07T08:34:31.203Z,11.23
2022-12-07T08:37:14.193Z,11.82
2022-12-07T08:39:57.201Z,12.66
2022-12-07T08:42:41.440Z,14.88
2022-12-07T08:45:27.422Z,17.44
2022-12-07T08:48:15.136Z,23.02
2022-12-07T08:51:00.177Z,24.10
2022-12-07T08:53:44.933Z,24.54
2022-12-07T08:56:28.659Z,23.03
2022-12-07T08:59:13.126Z,19.34
2022-12-07T09:01:56.516Z,18.07
2022-12-07T09:04:39.620Z,15.94
2022-12-07T09:07:24.139Z,14.49
2022-12-07T09:10:08.318Z,14.50
2022-12-07T09:12:51.574Z,14.06
2022-12-07T09:15:34.919Z,12.79
2022-12-07T09:18:18.124Z,11.82
2022-12-07T09:21:01.190Z,11.49
2022-12-07T09:23:46.896Z,11.93
2022-12-07T09:26:29.999Z,12.14
2022-12-07T09:29:13.074Z,12.13
2022-12-07T09:31:56.081Z,11.89
2022-12-07T09:34:39.249Z,11.50
2022-12-07T09:37:22.343Z,11.52
2022-12-07T09:40:08.573Z,11.35
2022-12-07T09:42:54.616Z,11.29
2022-12-07T09:45:41.275Z,10.32
2022-12-07T09:48:31.546Z,10.72
2022-12-07T09:51:23.314Z,10.72
2022-12-07T09:54:07.582Z,10.63
2022-12-07T09:56:52.060Z,10.33
2022-12-07T09:59:36.728Z,10.09
2022-12-07T10:02:28.399Z,10.39
2022-12-07T10:05:22.093Z,10.38
2022-12-07T10:08:07.481Z,10.08
2022-12-07T10:10:53.715Z,10.28
2022-12-07T10:13:40.268Z,10.53
2022-12-07T10:16:40.488Z,10.38
2022-12-07T10:19:31.476Z,10.76
2022-12-07T10:22:17.383Z,10.61
2022-12-07T10:25:11.496Z,11.23
2022-12-07T10:28:03.543Z,11.40
2022-12-07T10:30:59.255Z,12.01
2022-12-07T10:33:52.409Z,13.73
2022-12-07T10:36:39.084Z,16.79
2022-12-07T10:39:23.628Z,19.60
2022-12-07T10:42:07.108Z,17.60
2022-12-07T10:44:51.296Z,16.42
2022-12-07T10:47:41.505Z,15.34
2022-12-07T10:50:54.815Z,14.67
2022-12-07T10:54:00.604Z,14.47
2022-12-07T10:57:18.622Z,14.01
2022-12-07T11:00:13.941Z,13.76
2022-12-07T11:03:18.631Z,13.99
2022-12-07T11:06:14.050Z,13.62
2022-12-07T11:09:18.390Z,12.80
2022-12-07T11:12:08.166Z,12.63
2022-12-07T11:14:58.524Z,12.06
2022-12-07T11:17:51.049Z,12.31
2022-12-07T11:20:47.694Z,12.40
2022-12-07T11:23:42.402Z,12.36
2022-12-07T11:26:49.034Z,12.17
2022-12-07T11:29:49.282Z,11.90
2022-12-07T11:32:51.445Z,11.36
2022-12-07T11:35:43.613Z,11.40
2022-12-07T11:38:38.052Z,11.77
2022-12-07T11:41:29.251Z,11.85
2022-12-07T11:44:33.530Z,11.85
2022-12-07T11:47:20.934Z,11.25
2022-12-07T11:50:19.598Z,11.74
2022-12-07T11:53:08.146Z,11.80
2022-12-07T11:55:57.430Z,11.85
2022-12-07T11:58:53.604Z,11.61
2022-12-07T12:01:50.172Z,11.52
2022-12-07T12:04:53.607Z,11.68
2022-12-07T12:10:55.661Z,11.80
2022-12-07T12:17:47.847Z,11.57
2022-12-07T12:20:35.207Z,10.69
2022-12-07T12:23:21.439Z,10.87
2022-12-07T12:26:09.302Z,10.67
2022-12-07T12:28:59.535Z,10.61
2022-12-07T12:31:43.677Z,10.59
2022-12-07T12:34:35.972Z,10.57
2022-12-07T12:37:47.267Z,10.29
2022-12-07T12:40:57.704Z,10.31
2022-12-07T12:43:55.022Z,10.43
2022-12-07T12:46:56.432Z,10.02
2022-12-07T12:49:44.201Z,10.24
2022-12-07T12:52:54.150Z,10.36
2022-12-07T12:56:09.472Z,10.40
2022-12-07T12:59:35.429Z,10.85
2022-12-07T13:02:24.338Z,10.94
2022-12-07T13:05:20.501Z,10.94
2022-12-07T13:08:05.131Z,11.25
2022-12-07T13:10:48.900Z,11.05
2022-12-07T13:13:35.017Z,11.09
2022-12-07T13:16:43.473Z,11.17
2022-12-07T13:20:03.306Z,11.19
2022-12-07T13:22:51.539Z,11.03
2022-12-07T13:25:43.615Z,11.10
2022-12-07T13:28:34.520Z,11.08
2022-12-07T13:31:36.229Z,10.82
2022-12-07T13:34:35.911Z,10.69
2022-12-07T13:37:27.190Z,10.64
2022-12-07T13:40:21.018Z,10.55
2022-12-07T13:43:07.330Z,10.58
2022-12-07T13:45:59.159Z,10.57
2022-12-07T13:48:47.592Z,10.54
2022-12-07T13:51:39.042Z,10.50
2022-12-07T13:54:23.409Z,10.44
2022-12-07T13:57:06.591Z,10.49
2022-12-07T13:59:50.701Z,10.46
2022-12-07T14:02:38.778Z,10.20
2022-12-07T14:05:27.553Z,10.24
2022-12-07T14:08:25.859Z,10.09
2022-12-07T14:11:19.087Z,10.06
2022-12-07T14:14:03.804Z,9.96
2022-12-07T14:16:58.843Z,9.88
2022-12-07T14:19:51.634Z,9.81
2022-12-07T14:22:36.987Z,9.70
2022-12-07T14:25:23.289Z,9.55
2022-12-07T14:28:06.332Z,9.50
2022-12-07T14:30:49.541Z,9.44
2022-12-07T14:33:32.684Z,9.28
2022-12-07T14:36:16.666Z,9.12
2022-12-07T14:39:00.535Z,9.11
2022-12-07T14:41:54.099Z,9.03
2022-12-07T14:44:37.180Z,8.95
2022-12-07T14:50:24.370Z,8.76
2022-12-07T14:56:07.384Z,8.59
2022-12-07T14:58:51.854Z,8.52
2022-12-07T15:01:34.879Z,8.46
2022-12-07T15:04:18.161Z,8.29
2022-12-07T15:07:03.008Z,8.24
2022-12-07T15:09:46.199Z,8.10
2022-12-07T15:12:29.229Z,8.09
2022-12-07T15:15:13.725Z,8.01
2022-12-07T15:17:56.987Z,7.99
2022-12-07T15:20:40.286Z,7.93
2022-12-07T15:23:23.441Z,7.81
2022-12-07T15:26:06.953Z,7.51
2022-12-07T15:28:50.146Z,7.54
2022-12-07T15:34:40.598Z,7.55
2022-12-07T15:37:23.946Z,7.28
2022-12-07T15:40:08.739Z,7.29
2022-12-07T15:42:51.743Z,7.31
2022-12-07T15:45:33.864Z,7.24
2022-12-07T15:48:27.812Z,7.20
2022-12-07T15:51:11.620Z,7.10
2022-12-07T15:53:54.663Z,7.13
2022-12-07T15:56:37.776Z,7.12
2022-12-07T15:59:21.056Z,7.08
2022-12-07T16:02:04.142Z,7.03
2022-12-07T16:04:48.704Z,6.94
2022-12-07T16:07:31.811Z,6.83
2022-12-07T16:10:14.967Z,6.86
2022-12-07T16:12:58.080Z,6.84
2022-12-07T16:15:41.248Z,6.81
2022-12-07T16:18:24.429Z,6.84
2022-12-07T16:21:09.256Z,6.86
2022-12-07T16:23:52.322Z,6.74
2022-12-07T16:26:35.497Z,6.81
2022-12-07T16:29:19.659Z,6.69
2022-12-07T16:32:02.764Z,6.78
2022-12-07T16:34:45.775Z,6.57
2022-12-07T16:37:30.252Z,6.65
2022-12-07T16:40:14.429Z,6.56
2022-12-07T16:42:57.928Z,6.52
2022-12-07T16:45:41.196Z,6.41
2022-12-07T16:48:24.655Z,6.41
2022-12-07T16:51:09.766Z,6.42
2022-12-07T16:53:55.158Z,6.31
2022-12-07T16:56:38.203Z,6.33
2022-12-07T16:59:21.255Z,6.35
2022-12-07T17:02:04.907Z,6.30
2022-12-07T17:04:48.023Z,6.28
2022-12-07T17:07:31.151Z,6.27
2022-12-07T17:10:15.584Z,6.24
2022-12-07T17:12:58.739Z,6.18
2022-12-07T17:15:43.350Z,6.02
2022-12-07T17:18:29.774Z,6.12
2022-12-07T17:21:12.881Z,6.09
2022-12-07T17:23:56.014Z,5.98
2022-12-07T17:26:42.036Z,5.90
2022-12-07T17:29:25.076Z,5.91
2022-12-07T17:32:08.231Z,5.85
2022-12-07T17:34:51.298Z,5.74
2022-12-07T17:37:34.587Z,5.82
2022-12-07T17:40:17.796Z,5.80
2022-12-07T17:43:02.262Z,5.79
2022-12-07T17:45:45.453Z,5.64
2022-12-07T17:48:28.614Z,5.66
2022-12-07T17:51:28.863Z,5.64
2022-12-07T17:54:12.775Z,5.50
2022-12-07T17:56:55.875Z,5.53
2022-12-07T17:59:40.589Z,5.45
2022-12-07T18:02:23.793Z,5.47
2022-12-07T18:05:07.924Z,5.44
2022-12-07T18:07:51.143Z,5.37
2022-12-07T18:10:34.292Z,5.39
2022-12-07T18:13:34.950Z,5.36
2022-12-07T18:16:23.036Z,5.25
2022-12-07T18:19:09.201Z,5.26
2022-12-07T18:21:52.379Z,5.23
2022-12-07T18:24:37.300Z,5.15
2022-12-07T18:27:20.548Z,5.18
2022-12-07T18:30:03.656Z,5.15
2022-12-07T18:32:48.104Z,5.23
2022-12-07T18:35:31.717Z,5.25
2022-12-07T18:38:14.894Z,5.07
2022-12-07T18:40:58.268Z,5.07
2022-12-07T18:43:41.774Z,5.07
2022-12-07T18:46:24.846Z,5.01
2022-12-07T18:49:10.928Z,5.07
2022-12-07T18:51:54.029Z,5.12
2022-12-07T18:54:37.179Z,5.09
2022-12-07T18:57:20.217Z,5.10
2022-12-07T19:00:04.340Z,5.08
2022-12-07T19:02:47.650Z,4.98
2022-12-07T19:05:32.231Z,4.96
2022-12-07T19:08:15.555Z,4.84
2022-12-07T19:11:23.528Z,4.83
2022-12-07T19:14:07.377Z,4.76
2022-12-07T19:16:52.223Z,4.81
2022-12-07T19:19:37.818Z,4.76
2022-12-07T19:22:24.335Z,4.73
2022-12-07T19:25:08.080Z,4.71
2022-12-07T19:27:51.521Z,4.70
2022-12-07T19:30:34.712Z,4.74
2022-12-07T19:33:17.777Z,4.69
2022-12-07T19:36:00.829Z,4.72
2022-12-07T19:38:51.722Z,4.62
2022-12-07T19:41:39.356Z,4.56
2022-12-07T19:44:25.588Z,4.57
2022-12-07T19:47:09.461Z,4.56
2022-12-07T19:49:53.506Z,4.60
2022-12-07T19:52:37.049Z,4.54
2022-12-07T19:55:22.237Z,4.53
2022-12-07T19:58:05.928Z,4.52
2022-12-07T20:00:49.116Z,4.50
2022-12-07T20:03:32.597Z,4.51
2022-12-07T20:06:18.723Z,4.41
2022-12-07T20:09:02.421Z,4.47
2022-12-07T20:12:04.549Z,4.38
2022-12-07T20:14:47.839Z,4.44
2022-12-07T20:17:31.031Z,4.51
2022-12-07T20:20:14.480Z,4.55
2022-12-07T20:22:57.680Z,4.57
2022-12-07T20:25:41.019Z,4.59
2022-12-07T20:28:25.870Z,4.57
2022-12-07T20:31:09.041Z,4.69
2022-12-07T20:33:53.899Z,4.69
2022-12-07T20:36:37.763Z,4.82
2022-12-07T20:39:21.037Z,4.58
2022-12-07T20:42:21.459Z,4.70
2022-12-07T20:45:09.592Z,4.68
2022-12-07T20:47:53.749Z,4.66
2022-12-07T20:50:42.004Z,4.59
2022-12-07T20:53:25.487Z,4.59
2022-12-07T20:56:09.823Z,4.45
2022-12-07T20:58:53.254Z,4.37
2022-12-07T21:01:38.408Z,4.33
2022-12-07T21:04:21.662Z,4.23
2022-12-07T21:07:05.002Z,4.07
2022-12-07T21:09:48.115Z,4.07
2022-12-07T21:12:31.246Z,4.06
2022-12-07T21:15:14.531Z,3.84
2022-12-07T21:18:04.246Z,4.02
2022-12-07T21:20:50.295Z,3.99
2022-12-07T21:23:35.231Z,3.91
2022-12-07T21:26:20.616Z,3.99
2022-12-07T21:29:04.715Z,3.93
2022-12-07T21:31:48.319Z,3.92
2022-12-07T21:34:32.979Z,3.85
2022-12-07T21:37:16.278Z,3.85
2022-12-07T21:39:59.630Z,3.85
2022-12-07T21:42:44.917Z,3.83
2022-12-07T21:45:28.075Z,3.68
2022-12-07T21:48:11.477Z,3.66
2022-12-07T21:50:56.075Z,3.75
2022-12-07T21:53:42.098Z,3.59
2022-12-07T21:56:27.765Z,3.70
2022-12-07T21:59:14.474Z,3.63
2022-12-07T22:01:57.682Z,3.77
2022-12-07T22:04:40.775Z,3.84
2022-12-07T22:07:25.533Z,3.85
2022-12-07T22:10:10.289Z,3.76
2022-12-07T22:12:55.447Z,3.78
2022-12-07T22:15:41.593Z,3.96
2022-12-07T22:18:24.646Z,3.98
2022-12-07T22:21:07.988Z,3.98
2022-12-07T22:23:53.911Z,4.00
2022-12-07T22:26:37.030Z,4.03
2022-12-07T22:29:21.065Z,4.08
2022-12-07T22:32:24.690Z,4.12
2022-12-07T22:35:07.767Z,4.18
2022-12-07T22:37:50.836Z,4.03
2022-12-07T22:40:35.345Z,4.11
2022-12-07T22:43:19.035Z,4.13
2022-12-07T22:46:02.524Z,4.14
2022-12-07T22:48:46.068Z,4.14
2022-12-07T22:51:31.099Z,4.14
2022-12-07T22:54:16.926Z,4.09
2022-12-07T22:57:01.358Z,4.06
2022-12-07T22:59:44.454Z,4.01
2022-12-07T23:02:27.880Z,3.99
2022-12-07T23:05:11.634Z,3.97
2022-12-07T23:07:54.782Z,3.85
2022-12-07T23:10:38.043Z,3.80
2022-12-07T23:13:39.528Z,3.72
2022-12-07T23:16:25.461Z,3.63
2022-12-07T23:19:09.052Z,3.57
2022-12-07T23:21:52.385Z,3.55
2022-12-07T23:24:35.759Z,3.46
2022-12-07T23:27:20.894Z,3.53
2022-12-07T23:30:06.399Z,3.55
2022-12-07T23:32:49.648Z,3.56
2022-12-07T23:35:32.943Z,3.42
2022-12-07T23:38:16.000Z,3.39
2022-12-07T23:40:59.106Z,3.33
2022-12-07T23:43:43.512Z,3.18
2022-12-07T23:46:31.505Z,3.25
2022-12-07T23:49:14.640Z,3.23
2022-12-07T23:51:58.478Z,3.20
2022-12-07T23:54:42.011Z,3.30
2022-12-07T23:57:25.103Z,3.31
